메인 페이지
METAR-TAF:

METAR-TAF

공항 :

Naval Station Mayport (Adm. David L. McDonald Field)

Mayport, 플로리다, 미국

위도: 30-23-45N, 경도: 081-25-21W, 고도: 5m

현재 날씨관측

예보는 25분 전, 19:52시(UTC)에 발표되었습니다.
11kt, 순간 최대 풍속 18kt
온도 18°C
습도 56%
기압 1009 hPa
시정: 16.1km
고도 3500ft 상공 구름 보통
고도 25000ft 상공 구름 보통

METAR: KNRB 301952Z 28011G18KT 10SM SCT035 SCT250 18/09 A2979 RMK AO2 SLP086 T01830094 $

시각: 15:17 (20:17 UTC)

예보

예보 대상 시간: 30일 15시부터 01일 15시까지 (UTC)
16kt, 순간 최대 풍속 24kt
시정 10km 이상
고도 2500ft 상공 구름 보통
고도 25000ft 상공 구름 많음
01일 0200시부터 (UTC)
서북서12kt, 순간 최대 풍속 20kt
시정 10km 이상
고도 25000ft 상공 구름 많음
01일 1400시부터 (UTC)
서북서14kt, 순간 최대 풍속 20kt
시정 10km 이상
맑음

TAF: KNRB 3015/0115 28016G24KT 9999 SCT025 BKN250 QNH2978INS FM010200 29012G20KT 9999 BKN250 QNH2992INS FM011400 30014G20KT 9999 SKC QNH3018INS T19/3015Z T03/0112Z FN20021

4,000개 이상의 공항 관측 자료 및 예보 (METAR 및 TAF 보고).

지도상에서 검색 가능한 기상관측소가 노란 점과 빨간 점으로 표시되어 있습니다.

기상관측소 명을 보려면 표시 위로 마우스를 이동하세요.

날씨 관측과 예보를 보려면 클릭하세요.

지도 변경 : 확대하려면 엑스 표시가 있는 녹색 버튼, 축소하려면 빼기 표시가 있는 녹색 버튼, 다음 페이지의 지도를 보려면 녹색 화살표를 클릭하세요.


METAR-TAF: